createdAt,value
2022-12-12T00:01:06.512Z,989.56
2022-12-12T00:06:10.674Z,989.63
2022-12-12T00:11:14.856Z,989.62
2022-12-12T00:16:19.104Z,989.59
2022-12-12T00:21:23.161Z,989.59
2022-12-12T00:26:27.341Z,989.67
2022-12-12T00:31:31.617Z,989.68
2022-12-12T00:36:35.645Z,989.66
2022-12-12T00:41:39.831Z,989.60
2022-12-12T00:46:44.002Z,989.65
2022-12-12T00:51:48.171Z,989.78
2022-12-12T00:56:52.314Z,989.67
2022-12-12T01:01:56.546Z,989.71
2022-12-12T01:07:00.688Z,989.74
2022-12-12T01:12:04.823Z,989.80
2022-12-12T01:17:09.003Z,989.81
2022-12-12T01:22:13.138Z,989.86
2022-12-12T01:27:17.305Z,989.84
2022-12-12T01:32:21.493Z,989.88
2022-12-12T01:37:25.656Z,989.93
2022-12-12T01:42:29.827Z,990.02
2022-12-12T01:47:34.001Z,990.16
2022-12-12T01:52:38.190Z,990.21
2022-12-12T01:57:42.317Z,990.16
2022-12-12T02:02:46.504Z,990.12
2022-12-12T02:07:50.756Z,990.15
2022-12-12T02:12:55.328Z,990.23
2022-12-12T02:18:02.240Z,990.41
2022-12-12T02:23:03.196Z,990.42
2022-12-12T02:28:07.322Z,990.35
2022-12-12T02:33:11.518Z,990.48
2022-12-12T02:38:15.670Z,990.46
2022-12-12T02:43:19.845Z,990.56
2022-12-12T02:48:24.003Z,990.56
2022-12-12T02:53:28.142Z,990.58
2022-12-12T02:58:32.341Z,990.66
2022-12-12T03:03:36.498Z,990.68
2022-12-12T03:08:38.756Z,990.70
2022-12-12T03:13:42.939Z,990.68
2022-12-12T03:18:47.074Z,990.67
2022-12-12T03:23:51.283Z,990.64
2022-12-12T03:28:55.428Z,990.67
2022-12-12T03:33:59.574Z,990.71
2022-12-12T03:39:03.745Z,990.71
2022-12-12T03:44:07.923Z,990.65
2022-12-12T03:49:12.078Z,990.63
2022-12-12T03:54:16.259Z,990.75
2022-12-12T03:59:24.173Z,990.78
2022-12-12T04:04:24.580Z,990.84
2022-12-12T04:09:28.733Z,990.79
2022-12-12T04:14:32.925Z,990.81
2022-12-12T04:19:37.121Z,990.82
2022-12-12T04:24:41.250Z,990.81
2022-12-12T04:29:45.423Z,990.91
2022-12-12T04:34:49.586Z,990.90
2022-12-12T04:39:53.733Z,991.02
2022-12-12T04:44:57.928Z,991.01
2022-12-12T04:50:02.061Z,990.92
2022-12-12T04:55:06.250Z,990.90
2022-12-12T05:00:10.422Z,990.89
2022-12-12T05:05:14.705Z,990.99
2022-12-12T05:10:18.756Z,990.97
2022-12-12T05:15:22.873Z,991.00
2022-12-12T05:20:27.471Z,990.99
2022-12-12T05:25:31.243Z,991.00
2022-12-12T05:30:35.523Z,991.08
2022-12-12T05:35:39.563Z,991.04
2022-12-12T05:40:43.720Z,991.08
2022-12-12T05:45:47.971Z,991.16
2022-12-12T05:50:52.075Z,991.15
2022-12-12T05:55:56.212Z,991.22
2022-12-12T06:01:03.364Z,991.31
2022-12-12T06:06:04.577Z,991.25
2022-12-12T06:11:08.717Z,991.33
2022-12-12T06:16:13.013Z,991.34
2022-12-12T06:21:17.077Z,991.37
2022-12-12T06:26:21.259Z,991.34
2022-12-12T06:31:25.402Z,991.34
2022-12-12T06:36:29.559Z,991.41
2022-12-12T06:41:33.730Z,991.40
2022-12-12T06:46:37.931Z,991.47
2022-12-12T06:51:42.086Z,991.50
2022-12-12T06:56:48.185Z,991.56
2022-12-12T07:01:50.477Z,991.59
2022-12-12T07:06:54.585Z,991.59
2022-12-12T07:11:58.722Z,991.68
2022-12-12T07:17:02.908Z,991.57
2022-12-12T07:22:10.099Z,991.67
2022-12-12T07:27:11.234Z,991.62
2022-12-12T07:32:15.369Z,991.76
2022-12-12T07:37:19.549Z,991.90
2022-12-12T07:42:23.730Z,991.89
2022-12-12T07:47:27.871Z,992.07
2022-12-12T07:52:32.074Z,992.01
2022-12-12T07:57:36.236Z,992.09
2022-12-12T08:02:40.384Z,992.12
2022-12-12T08:07:44.580Z,992.08
2022-12-12T08:12:48.757Z,992.05
2022-12-12T08:17:52.877Z,992.11
2022-12-12T08:22:57.111Z,992.07
2022-12-12T08:28:01.246Z,992.06
2022-12-12T08:33:08.067Z,992.11
2022-12-12T08:38:07.659Z,992.12
2022-12-12T08:43:11.829Z,992.14
2022-12-12T08:48:16.005Z,992.14
2022-12-12T08:53:20.184Z,992.04
2022-12-12T08:58:24.360Z,992.01
2022-12-12T09:03:29.789Z,992.05
2022-12-12T09:08:32.737Z,992.11
2022-12-12T09:13:36.858Z,992.24
2022-12-12T09:18:47.802Z,992.14
2022-12-12T09:23:45.165Z,992.14
2022-12-12T09:28:49.356Z,992.24
2022-12-12T09:33:53.544Z,992.19
2022-12-12T09:38:57.697Z,992.15
2022-12-12T09:44:01.836Z,992.09
2022-12-12T09:49:05.995Z,992.12
2022-12-12T09:54:10.197Z,991.99
2022-12-12T09:59:14.329Z,991.96
2022-12-12T10:04:18.593Z,992.01
2022-12-12T10:09:22.666Z,991.97
2022-12-12T10:14:26.864Z,991.84
2022-12-12T10:19:31.037Z,991.83
2022-12-12T10:24:35.209Z,991.81
2022-12-12T10:29:41.523Z,991.76
2022-12-12T10:34:43.622Z,991.65
2022-12-12T10:39:47.711Z,991.62
2022-12-12T10:44:51.869Z,991.52
2022-12-12T10:49:56.020Z,991.53
2022-12-12T10:55:00.234Z,991.51
2022-12-12T11:00:04.324Z,991.34
2022-12-12T11:05:08.531Z,991.41
2022-12-12T11:10:12.685Z,991.27
2022-12-12T11:15:16.849Z,991.19
2022-12-12T11:20:20.994Z,991.09
2022-12-12T11:25:25.194Z,991.09
2022-12-12T11:30:29.340Z,991.01
2022-12-12T11:35:33.503Z,990.91
2022-12-12T11:40:37.688Z,990.93
2022-12-12T11:45:41.956Z,990.82
2022-12-12T11:50:46.011Z,990.77
2022-12-12T11:55:50.176Z,990.75
2022-12-12T12:00:54.331Z,990.78
2022-12-12T12:05:58.526Z,990.85
2022-12-12T12:11:02.687Z,990.85
2022-12-12T12:16:06.846Z,990.96
2022-12-12T12:21:11.021Z,990.99
2022-12-12T12:26:15.187Z,991.18
2022-12-12T12:31:19.379Z,991.51
2022-12-12T12:36:23.480Z,991.98
2022-12-12T12:41:27.630Z,992.66
2022-12-12T12:46:31.863Z,993.31
2022-12-12T12:51:35.978Z,993.96
2022-12-12T12:56:43.752Z,994.53
2022-12-12T13:01:44.380Z,994.95
2022-12-12T13:06:48.486Z,995.33
2022-12-12T13:16:56.852Z,995.76
2022-12-12T13:22:01.000Z,996.01
2022-12-12T13:27:05.170Z,996.14
2022-12-12T13:32:09.341Z,996.16
2022-12-12T13:37:13.480Z,996.25
2022-12-12T13:42:17.660Z,996.47
2022-12-12T13:47:21.826Z,996.62
2022-12-12T13:52:25.972Z,996.96
2022-12-12T13:57:30.160Z,997.18
2022-12-12T14:02:34.350Z,997.50
2022-12-12T14:07:36.602Z,997.57
2022-12-12T14:12:40.721Z,997.53
2022-12-12T14:17:44.934Z,997.46
2022-12-12T14:22:49.062Z,997.51
2022-12-12T14:27:53.277Z,997.35
2022-12-12T14:32:57.404Z,997.40
2022-12-12T14:37:59.681Z,997.34
2022-12-12T14:43:19.600Z,997.29
2022-12-12T14:48:07.990Z,997.30
2022-12-12T14:53:12.168Z,997.42
2022-12-12T14:58:16.337Z,997.40
2022-12-12T15:03:20.564Z,997.11
2022-12-12T15:08:24.719Z,996.64
2022-12-12T15:13:28.861Z,996.24
2022-12-12T15:18:32.972Z,995.88
2022-12-12T15:23:37.199Z,995.69
2022-12-12T15:33:45.525Z,995.50
2022-12-12T15:38:49.676Z,995.42
2022-12-12T15:43:53.840Z,995.37
2022-12-12T15:48:58.002Z,995.16
2022-12-12T15:54:02.177Z,994.90
2022-12-12T15:59:06.313Z,994.91
2022-12-12T16:04:10.540Z,994.93
2022-12-12T16:09:14.668Z,994.89
2022-12-12T16:14:18.832Z,994.96
2022-12-12T16:19:23.016Z,994.93
2022-12-12T16:24:27.146Z,994.89
2022-12-12T16:29:31.351Z,994.80
2022-12-12T16:34:35.468Z,994.83
2022-12-12T16:39:39.690Z,994.80
2022-12-12T16:44:43.852Z,994.67
2022-12-12T16:49:47.971Z,994.57
2022-12-12T16:54:53.879Z,994.60
2022-12-12T16:59:56.314Z,994.62
2022-12-12T17:05:00.485Z,994.49
2022-12-12T17:10:04.658Z,994.34
2022-12-12T17:15:08.813Z,994.35
2022-12-12T17:20:13.480Z,994.14
2022-12-12T17:25:17.143Z,994.04
2022-12-12T17:30:21.296Z,994.07
2022-12-12T17:35:25.499Z,993.88
2022-12-12T17:40:29.627Z,993.78
2022-12-12T17:45:33.851Z,993.69
2022-12-12T17:50:41.805Z,993.56
2022-12-12T17:55:53.155Z,993.60
2022-12-12T18:00:46.352Z,993.70
2022-12-12T18:05:50.530Z,993.69
2022-12-12T18:10:54.641Z,993.60
2022-12-12T18:15:58.837Z,993.37
2022-12-12T18:21:03.020Z,993.35
2022-12-12T18:26:07.156Z,993.15
2022-12-12T18:31:11.335Z,993.23
2022-12-12T18:36:15.526Z,993.22
2022-12-12T18:41:19.650Z,993.10
2022-12-12T18:46:23.911Z,992.97
2022-12-12T18:51:28.019Z,993.05
2022-12-12T19:01:36.401Z,992.96
2022-12-12T19:06:40.534Z,992.88
2022-12-12T19:11:44.675Z,992.89
2022-12-12T19:16:48.877Z,993.00
2022-12-12T19:21:53.034Z,993.01
2022-12-12T19:26:57.187Z,992.94
2022-12-12T19:32:01.328Z,992.83
2022-12-12T19:37:05.543Z,992.78
2022-12-12T19:42:09.762Z,992.77
2022-12-12T19:47:13.835Z,992.74
2022-12-12T19:52:18.029Z,992.80
2022-12-12T19:57:22.151Z,992.88
2022-12-12T20:02:26.409Z,992.81
2022-12-12T20:07:28.877Z,992.71
2022-12-12T20:12:32.793Z,992.74
2022-12-12T20:17:36.951Z,992.86
2022-12-12T20:22:41.236Z,992.85
2022-12-12T20:27:45.309Z,992.86
2022-12-12T20:32:49.461Z,992.94
2022-12-12T20:37:53.674Z,992.86
2022-12-12T20:43:03.189Z,992.86
2022-12-12T20:48:07.403Z,992.83
2022-12-12T20:53:06.113Z,992.84
2022-12-12T20:58:10.310Z,992.90
2022-12-12T21:03:14.569Z,992.96
2022-12-12T21:08:18.789Z,993.07
2022-12-12T21:13:22.831Z,993.05
2022-12-12T21:18:26.983Z,993.01
2022-12-12T21:23:31.173Z,992.94
2022-12-12T21:28:35.319Z,993.00
2022-12-12T21:33:39.506Z,993.00
2022-12-12T21:38:43.655Z,992.96
2022-12-12T21:43:47.852Z,993.04
2022-12-12T21:48:52.005Z,993.09
2022-12-12T21:53:56.147Z,993.09
2022-12-12T21:59:00.379Z,993.05
2022-12-12T22:04:04.483Z,992.94
2022-12-12T22:09:08.788Z,992.88
2022-12-12T22:14:12.845Z,992.90
2022-12-12T22:19:17.019Z,992.99
2022-12-12T22:24:21.211Z,993.03
2022-12-12T22:29:25.371Z,993.04
2022-12-12T22:34:29.526Z,993.03
2022-12-12T22:39:33.686Z,992.97
2022-12-12T22:44:37.824Z,993.05
2022-12-12T22:49:41.997Z,993.03
2022-12-12T22:54:46.174Z,993.00
2022-12-12T22:59:50.318Z,992.92
2022-12-12T23:04:54.639Z,992.94
2022-12-12T23:09:58.692Z,992.91
2022-12-12T23:15:02.885Z,992.90
2022-12-12T23:20:07.059Z,992.94
2022-12-12T23:25:11.227Z,992.79
2022-12-12T23:30:15.378Z,992.78
2022-12-12T23:35:19.503Z,992.69
2022-12-12T23:40:23.673Z,992.60
2022-12-12T23:45:27.894Z,992.66
2022-12-12T23:50:32.067Z,992.68
2022-12-12T23:55:36.222Z,992.58
